createdAt,value
2023-02-26T00:00:55.879Z,93.99
2023-02-26T00:01:56.287Z,94.08
2023-02-26T00:02:55.914Z,94.08
2023-02-26T00:03:55.775Z,94.13
2023-02-26T00:04:55.752Z,94.08
2023-02-26T00:05:55.710Z,93.84
2023-02-26T00:06:59.349Z,94.03
2023-02-26T00:07:55.638Z,94.22
2023-02-26T00:08:55.903Z,93.75
2023-02-26T00:09:55.568Z,93.94
2023-02-26T00:10:55.503Z,94.6
2023-02-26T00:11:55.628Z,94.32
2023-02-26T00:12:55.494Z,94.32
2023-02-26T00:13:55.627Z,94.32
2023-02-26T00:14:55.392Z,94.6
2023-02-26T00:15:55.363Z,94.6
2023-02-26T00:16:55.456Z,94.98
2023-02-26T00:17:56.870Z,94.79
2023-02-26T00:18:55.199Z,94.79
2023-02-26T00:19:55.172Z,94.89
2023-02-26T00:20:55.144Z,95.26
2023-02-26T00:21:55.096Z,95.36
2023-02-26T00:22:55.076Z,95.36
2023-02-26T00:23:55.012Z,95.64
2023-02-26T00:24:55.006Z,95.45
2023-02-26T00:25:54.989Z,95.17
2023-02-26T00:26:54.656Z,95.26
2023-02-26T00:27:54.872Z,95.17
2023-02-26T00:28:54.889Z,95.17
2023-02-26T00:29:54.784Z,95.83
2023-02-26T00:30:54.838Z,95.73
2023-02-26T00:31:54.864Z,95.92
2023-02-26T00:32:54.672Z,95.73
2023-02-26T00:33:54.646Z,95.36
2023-02-26T00:34:54.609Z,95.36
2023-02-26T00:35:54.591Z,95.45
2023-02-26T00:36:54.551Z,95.17
2023-02-26T00:37:54.497Z,95.73
2023-02-26T00:38:54.447Z,95.26
2023-02-26T00:39:54.408Z,95.36
2023-02-26T00:40:54.373Z,95.45
2023-02-26T00:41:54.380Z,95.45
2023-02-26T00:42:54.316Z,95.36
2023-02-26T00:43:54.261Z,95.26
2023-02-26T00:44:54.222Z,95.45
2023-02-26T00:45:54.307Z,95.54
2023-02-26T00:46:54.143Z,95.36
2023-02-26T00:47:54.102Z,95.45
2023-02-26T00:48:54.073Z,95.45
2023-02-26T00:49:54.081Z,95.45
2023-02-26T00:50:53.991Z,95.73
2023-02-26T00:51:53.987Z,95.73
2023-02-26T00:52:53.946Z,95.54
2023-02-26T00:53:53.876Z,95.83
2023-02-26T00:54:53.850Z,95.73
2023-02-26T00:55:53.803Z,95.07
2023-02-26T00:56:53.772Z,95.07
2023-02-26T00:57:53.753Z,94.98
2023-02-26T00:58:53.695Z,95.36
2023-02-26T00:59:53.656Z,95.26
2023-02-26T01:00:53.618Z,94.98
2023-02-26T01:01:53.633Z,94.98
2023-02-26T01:02:53.539Z,94.79
2023-02-26T01:03:53.602Z,94.98
2023-02-26T01:04:53.479Z,94.98
2023-02-26T01:05:53.189Z,94.98
2023-02-26T01:06:53.395Z,94.79
2023-02-26T01:07:53.344Z,94.79
2023-02-26T01:08:53.366Z,95.17
2023-02-26T01:09:53.273Z,94.98
2023-02-26T01:10:53.236Z,94.79
2023-02-26T01:11:53.198Z,94.51
2023-02-26T01:12:53.159Z,94.51
2023-02-26T01:13:53.146Z,94.6
2023-02-26T01:14:53.148Z,94.6
2023-02-26T01:15:53.145Z,94.79
2023-02-26T01:16:53.012Z,94.98
2023-02-26T01:17:52.980Z,94.6
2023-02-26T01:18:52.942Z,94.32
2023-02-26T01:19:52.904Z,94.79
2023-02-26T01:20:52.955Z,94.6
2023-02-26T01:21:52.817Z,94.6
2023-02-26T01:22:52.819Z,94.6
2023-02-26T01:23:52.754Z,94.41
2023-02-26T01:24:52.760Z,94.51
2023-02-26T01:25:52.667Z,94.51
2023-02-26T01:26:52.625Z,94.41
2023-02-26T01:27:52.612Z,94.51
2023-02-26T01:28:52.551Z,94.41
2023-02-26T01:29:52.545Z,94.6
2023-02-26T01:30:52.800Z,94.7
2023-02-26T01:31:52.893Z,94.79
2023-02-26T01:32:52.546Z,94.6
2023-02-26T01:33:52.363Z,94.7
2023-02-26T01:34:52.322Z,94.6
2023-02-26T01:35:52.305Z,94.51
2023-02-26T01:36:52.294Z,94.41
2023-02-26T01:37:52.213Z,94.6
2023-02-26T01:38:52.179Z,94.6
2023-02-26T01:39:52.138Z,94.13
2023-02-26T01:40:52.127Z,94.51
2023-02-26T01:41:52.068Z,93.94
2023-02-26T01:42:52.024Z,93.94
2023-02-26T01:43:51.993Z,94.13
2023-02-26T01:44:51.963Z,94.22
2023-02-26T01:45:51.938Z,93.75
2023-02-26T01:46:51.973Z,94.13
2023-02-26T01:47:51.844Z,93.37
2023-02-26T01:48:51.800Z,93.66
2023-02-26T01:49:51.761Z,93.47
2023-02-26T01:50:51.725Z,93.37
2023-02-26T01:51:51.724Z,93.47
2023-02-26T01:52:51.732Z,93.75
2023-02-26T01:53:51.621Z,93.37
2023-02-26T01:54:51.570Z,93.56
2023-02-26T01:55:51.541Z,93.56
2023-02-26T01:56:51.529Z,93.37
2023-02-26T01:57:51.607Z,93.37
2023-02-26T01:58:51.423Z,92.99
2023-02-26T01:59:51.411Z,92.99
2023-02-26T02:00:51.341Z,92.9
2023-02-26T02:01:51.355Z,92.43
2023-02-26T02:02:51.749Z,92.9
2023-02-26T02:03:51.238Z,92.71
2023-02-26T02:04:51.208Z,92.61
2023-02-26T02:05:51.224Z,92.33
2023-02-26T02:06:51.119Z,92.52
2023-02-26T02:07:51.088Z,92.43
2023-02-26T02:08:51.107Z,92.8
2023-02-26T02:09:51.033Z,92.14
2023-02-26T02:10:50.973Z,92.05
2023-02-26T02:11:50.926Z,92.14
2023-02-26T02:12:50.914Z,92.43
2023-02-26T02:13:50.848Z,92.05
2023-02-26T02:14:50.828Z,91.77
2023-02-26T02:15:50.773Z,91.58
2023-02-26T02:16:50.911Z,91.67
2023-02-26T02:17:50.829Z,91.29
2023-02-26T02:18:50.655Z,91.39
2023-02-26T02:19:50.617Z,91.86
2023-02-26T02:20:50.670Z,90.91
2023-02-26T02:21:50.546Z,91.2
2023-02-26T02:22:50.502Z,91.01
2023-02-26T02:23:50.713Z,91.1
2023-02-26T02:24:50.482Z,90.73
2023-02-26T02:25:50.386Z,90.82
2023-02-26T02:26:50.364Z,90.82
2023-02-26T02:27:50.437Z,90.25
2023-02-26T02:28:50.305Z,89.87
2023-02-26T02:29:50.231Z,90.16
2023-02-26T02:30:50.259Z,90.44
2023-02-26T02:31:50.682Z,90.44
2023-02-26T02:32:50.348Z,89.78
2023-02-26T02:33:50.108Z,89.78
2023-02-26T02:34:50.041Z,89.78
2023-02-26T02:35:50.004Z,89.69
2023-02-26T02:36:49.974Z,89.69
2023-02-26T02:37:49.923Z,89.5
2023-02-26T02:38:49.899Z,89.59
2023-02-26T02:39:49.611Z,89.69
2023-02-26T02:40:49.815Z,89.78
2023-02-26T02:41:49.792Z,89.78
2023-02-26T02:42:49.742Z,90.06
2023-02-26T02:43:49.701Z,89.69
2023-02-26T02:44:49.687Z,89.78
2023-02-26T02:45:49.747Z,89.5
2023-02-26T02:46:49.763Z,89.59
2023-02-26T02:47:49.550Z,89.4
2023-02-26T02:48:49.552Z,89.69
2023-02-26T02:49:49.493Z,88.93
2023-02-26T02:50:49.435Z,89.12
2023-02-26T02:51:49.442Z,89.22
2023-02-26T02:52:49.358Z,88.74
2023-02-26T02:53:49.324Z,88.84
2023-02-26T02:54:49.299Z,88.74
2023-02-26T02:55:49.245Z,89.12
2023-02-26T02:56:49.211Z,89.12
2023-02-26T02:57:49.169Z,89.5
2023-02-26T02:58:49.138Z,89.22
2023-02-26T02:59:49.098Z,89.69
2023-02-26T03:00:49.158Z,89.78
2023-02-26T03:01:49.011Z,89.69
2023-02-26T03:02:49.129Z,89.5
2023-02-26T03:03:48.937Z,89.22
2023-02-26T03:04:48.903Z,89.59
2023-02-26T03:05:48.939Z,89.59
2023-02-26T03:06:48.827Z,89.97
2023-02-26T03:07:48.790Z,89.69
2023-02-26T03:08:48.794Z,90.35
2023-02-26T03:09:48.717Z,90.44
2023-02-26T03:10:48.673Z,89.87
2023-02-26T03:11:48.651Z,90.54
2023-02-26T03:12:48.599Z,90.25
2023-02-26T03:13:48.567Z,90.91
2023-02-26T03:14:48.527Z,90.54
2023-02-26T03:15:48.495Z,90.91
2023-02-26T03:16:48.541Z,90.91
2023-02-26T03:17:48.402Z,90.91
2023-02-26T03:18:48.367Z,91.1
2023-02-26T03:19:48.331Z,90.82
2023-02-26T03:20:48.289Z,90.82
2023-02-26T03:21:48.294Z,91.48
2023-02-26T03:22:48.211Z,91.29
2023-02-26T03:23:48.195Z,91.2
2023-02-26T03:24:48.148Z,91.67
2023-02-26T03:25:48.115Z,91.77
2023-02-26T03:26:48.064Z,91.58
2023-02-26T03:27:48.030Z,91.48
2023-02-26T03:28:47.988Z,91.77
2023-02-26T03:29:47.955Z,92.33
2023-02-26T03:30:47.989Z,91.96
2023-02-26T03:31:48.118Z,92.24
2023-02-26T03:32:47.859Z,92.76
2023-02-26T03:33:47.800Z,92.52
2023-02-26T03:34:47.764Z,92.33
2023-02-26T03:35:47.763Z,92.33
2023-02-26T03:36:47.682Z,92.33
2023-02-26T03:37:47.680Z,92.29
2023-02-26T03:38:47.601Z,92.33
2023-02-26T03:39:47.574Z,92.57
2023-02-26T03:40:47.530Z,92.71
2023-02-26T03:41:47.493Z,92.57
2023-02-26T03:42:47.452Z,92.38
2023-02-26T03:43:47.174Z,92.47
2023-02-26T03:44:47.373Z,92.43
2023-02-26T03:45:47.445Z,92.47
2023-02-26T03:46:47.338Z,92.85
2023-02-26T03:47:47.268Z,93.32
2023-02-26T03:48:47.310Z,93.04
2023-02-26T03:49:47.194Z,93.47
2023-02-26T03:50:47.143Z,93.32
2023-02-26T03:51:47.122Z,93.13
2023-02-26T03:52:47.067Z,93.13
2023-02-26T03:53:47.060Z,93.04
2023-02-26T03:54:47.000Z,93.13
2023-02-26T03:55:46.963Z,93.13
2023-02-26T03:56:46.910Z,93.13
2023-02-26T03:57:46.873Z,93.51
2023-02-26T03:58:46.832Z,93.42
2023-02-26T03:59:46.946Z,93.23
2023-02-26T04:00:46.528Z,93.51
2023-02-26T04:01:46.721Z,93.42
2023-02-26T04:02:46.684Z,93.32
2023-02-26T04:03:46.649Z,93.61
2023-02-26T04:04:46.652Z,93.89
2023-02-26T04:05:46.564Z,93.89
2023-02-26T04:06:46.574Z,93.8
2023-02-26T04:07:46.487Z,93.99
2023-02-26T04:08:46.456Z,93.7
2023-02-26T04:09:46.455Z,93.99
2023-02-26T04:10:46.392Z,94.65
2023-02-26T04:11:46.358Z,94.27
2023-02-26T04:12:46.301Z,94.27
2023-02-26T04:13:46.268Z,94.37
2023-02-26T04:14:46.224Z,94.74
2023-02-26T04:15:46.187Z,94.56
2023-02-26T04:16:46.052Z,94.84
2023-02-26T04:17:46.108Z,94.74
2023-02-26T04:18:46.075Z,94.84
2023-02-26T04:19:46.033Z,94.65
2023-02-26T04:20:46.016Z,94.56
2023-02-26T04:21:45.959Z,94.46
2023-02-26T04:22:45.930Z,94.37
2023-02-26T04:23:45.909Z,94.65
2023-02-26T04:24:45.848Z,94.74
2023-02-26T04:25:45.845Z,94.37
2023-02-26T04:26:45.765Z,94.65
2023-02-26T04:27:45.718Z,93.7
2023-02-26T04:28:45.683Z,94.18
2023-02-26T04:29:45.634Z,94.08
2023-02-26T04:30:45.752Z,93.7
2023-02-26T04:31:45.999Z,93.89
2023-02-26T04:32:45.525Z,94.08
2023-02-26T04:33:45.487Z,94.18
2023-02-26T04:34:45.453Z,93.99
2023-02-26T04:35:45.408Z,93.7
2023-02-26T04:36:45.394Z,94.08
2023-02-26T04:37:45.090Z,93.7
2023-02-26T04:38:45.314Z,93.99
2023-02-26T04:39:45.265Z,93.89
2023-02-26T04:40:45.211Z,93.89
2023-02-26T04:41:45.196Z,93.7
2023-02-26T04:42:47.291Z,93.7
2023-02-26T04:43:45.095Z,93.61
2023-02-26T04:44:45.055Z,93.89
2023-02-26T04:45:45.009Z,93.99
2023-02-26T04:46:45.150Z,94.08
2023-02-26T04:47:44.939Z,93.99
2023-02-26T04:48:44.667Z,93.89
2023-02-26T04:49:44.865Z,94.08
2023-02-26T04:50:44.892Z,94.08
2023-02-26T04:51:44.798Z,93.8
2023-02-26T04:52:44.768Z,93.8
2023-02-26T04:53:44.711Z,93.89
2023-02-26T04:54:44.671Z,93.8
2023-02-26T04:55:44.636Z,94.08
2023-02-26T04:56:44.598Z,93.99
2023-02-26T04:57:44.578Z,93.89
2023-02-26T04:58:44.514Z,94.27
2023-02-26T04:59:44.476Z,94.46
2023-02-26T05:00:44.438Z,94.84
2023-02-26T05:01:44.531Z,94.37
2023-02-26T05:02:44.379Z,94.46
2023-02-26T05:03:44.329Z,94.37
2023-02-26T05:04:44.398Z,94.27
2023-02-26T05:05:44.249Z,94.65
2023-02-26T05:06:44.211Z,94.37
2023-02-26T05:07:44.196Z,94.18
2023-02-26T05:08:44.154Z,94.46
2023-02-26T05:09:44.105Z,94.56
2023-02-26T05:10:44.059Z,94.46
2023-02-26T05:11:44.017Z,94.56
2023-02-26T05:12:43.978Z,94.93
2023-02-26T05:13:43.966Z,94.74
2023-02-26T05:14:43.913Z,95.21
2023-02-26T05:15:43.924Z,95.12
2023-02-26T05:16:43.822Z,94.93
2023-02-26T05:17:43.787Z,95.4
2023-02-26T05:18:43.744Z,94.93
2023-02-26T05:19:43.714Z,94.74
2023-02-26T05:20:43.670Z,95.03
2023-02-26T05:21:43.629Z,94.84
2023-02-26T05:22:43.597Z,95.03
2023-02-26T05:23:43.561Z,94.93
2023-02-26T05:24:43.308Z,95.31
2023-02-26T05:25:43.483Z,94.65
2023-02-26T05:26:43.438Z,94.93
2023-02-26T05:27:43.400Z,94.56
2023-02-26T05:28:43.386Z,95.03
2023-02-26T05:29:43.356Z,95.31
2023-02-26T05:30:43.388Z,95.12
2023-02-26T05:31:43.658Z,95.5
2023-02-26T05:32:43.221Z,95.5
2023-02-26T05:33:43.176Z,95.68
2023-02-26T05:34:43.149Z,95.4
2023-02-26T05:35:43.112Z,95.5
2023-02-26T05:36:43.064Z,95.68
2023-02-26T05:37:43.020Z,95.31
2023-02-26T05:38:42.965Z,95.59
2023-02-26T05:39:42.937Z,95.97
2023-02-26T05:40:42.916Z,95.97
2023-02-26T05:41:42.850Z,95.87
2023-02-26T05:42:42.835Z,95.87
2023-02-26T05:43:42.777Z,95.78
2023-02-26T05:44:42.758Z,95.68
2023-02-26T05:45:42.734Z,95.78
2023-02-26T05:46:42.811Z,96.16
2023-02-26T05:47:42.624Z,95.68
2023-02-26T05:48:44.712Z,95.97
2023-02-26T05:49:42.537Z,95.68
2023-02-26T05:50:42.508Z,95.97
2023-02-26T05:51:42.456Z,95.97
2023-02-26T05:52:42.439Z,95.78
2023-02-26T05:53:42.395Z,96.06
2023-02-26T05:54:42.352Z,96.16
2023-02-26T05:55:42.312Z,96.54
2023-02-26T05:56:42.301Z,96.16
2023-02-26T05:57:42.231Z,95.78
2023-02-26T05:58:42.187Z,96.06
2023-02-26T05:59:41.917Z,96.44
2023-02-26T06:00:42.111Z,96.44
2023-02-26T06:01:42.208Z,96.06
2023-02-26T06:02:42.113Z,96.54
2023-02-26T06:03:41.990Z,96.35
2023-02-26T06:04:41.716Z,96.54
2023-02-26T06:05:41.912Z,95.87
2023-02-26T06:06:41.909Z,96.25
2023-02-26T06:07:41.918Z,96.06
2023-02-26T06:08:41.853Z,95.87
2023-02-26T06:09:41.756Z,96.16
2023-02-26T06:10:41.727Z,96.16
2023-02-26T06:11:41.680Z,96.25
2023-02-26T06:12:41.669Z,96.06
2023-02-26T06:13:41.602Z,96.44
2023-02-26T06:14:41.562Z,96.44
2023-02-26T06:15:41.537Z,96.25
2023-02-26T06:16:41.621Z,96.44
2023-02-26T06:17:43.260Z,96.44
2023-02-26T06:18:41.409Z,96.54
2023-02-26T06:19:41.364Z,96.35
2023-02-26T06:20:41.333Z,96.54
2023-02-26T06:21:41.293Z,96.54
2023-02-26T06:22:41.262Z,97.2
2023-02-26T06:23:41.209Z,96.73
2023-02-26T06:24:40.936Z,97.1
2023-02-26T06:25:41.146Z,97.2
2023-02-26T06:26:41.094Z,97.48
2023-02-26T06:27:41.059Z,97.29
2023-02-26T06:28:41.043Z,96.82
2023-02-26T06:29:40.984Z,96.73
2023-02-26T06:30:40.997Z,96.54
2023-02-26T06:31:41.323Z,96.73
2023-02-26T06:32:40.971Z,96.44
2023-02-26T06:33:40.870Z,96.54
2023-02-26T06:34:40.784Z,96.25
2023-02-26T06:35:40.751Z,96.44
2023-02-26T06:36:40.799Z,97.01
2023-02-26T06:37:40.678Z,96.35
2023-02-26T06:38:40.640Z,97.01
2023-02-26T06:39:40.611Z,97.2
2023-02-26T06:40:40.556Z,97.01
2023-02-26T06:41:40.515Z,97.01
2023-02-26T06:42:40.489Z,97.01
2023-02-26T06:43:40.440Z,97.01
2023-02-26T06:44:40.180Z,97.2
2023-02-26T06:45:40.509Z,97.29
2023-02-26T06:46:40.389Z,97.96
2023-02-26T06:47:40.307Z,97.48
2023-02-26T06:48:40.270Z,97.86
2023-02-26T06:49:40.241Z,97.48
2023-02-26T06:50:40.185Z,97.67
2023-02-26T06:51:40.132Z,97.01
2023-02-26T06:52:40.082Z,97.86
2023-02-26T06:53:40.049Z,97.86
2023-02-26T06:54:40.016Z,97.96
2023-02-26T06:55:39.976Z,97.29
2023-02-26T06:56:39.932Z,97.48
2023-02-26T06:57:39.932Z,97.2
2023-02-26T06:58:39.849Z,97.67
2023-02-26T06:59:39.821Z,98.05
2023-02-26T07:00:39.803Z,97.67
2023-02-26T07:01:39.743Z,97.96
2023-02-26T07:02:39.842Z,97.77
2023-02-26T07:03:39.661Z,97.48
2023-02-26T07:04:39.622Z,97.67
2023-02-26T07:05:39.645Z,97.39
2023-02-26T07:06:39.766Z,96.91
2023-02-26T07:07:39.510Z,97.39
2023-02-26T07:08:39.463Z,97.01
2023-02-26T07:09:39.424Z,97.01
2023-02-26T07:10:39.392Z,97.1
2023-02-26T07:11:39.348Z,97.1
2023-02-26T07:12:39.312Z,97.2
2023-02-26T07:13:39.288Z,97.2
2023-02-26T07:14:39.233Z,97.1
2023-02-26T07:15:39.193Z,97.39
2023-02-26T07:16:39.238Z,97.1
2023-02-26T07:17:39.119Z,97.2
2023-02-26T07:18:39.094Z,97.29
2023-02-26T07:19:39.050Z,97.48
2023-02-26T07:20:38.999Z,97.48
2023-02-26T07:21:38.987Z,96.82
2023-02-26T07:22:38.922Z,97.2
2023-02-26T07:23:38.890Z,97.01
2023-02-26T07:24:38.844Z,96.63
2023-02-26T07:25:38.817Z,96.35
2023-02-26T07:26:38.778Z,96.82
2023-02-26T07:27:38.730Z,96.54
2023-02-26T07:28:38.717Z,95.68
2023-02-26T07:29:38.658Z,96.06
2023-02-26T07:30:38.858Z,96.16
2023-02-26T07:31:38.819Z,96.06
2023-02-26T07:32:38.635Z,95.87
2023-02-26T07:33:38.515Z,95.87
2023-02-26T07:34:38.472Z,96.06
2023-02-26T07:35:38.426Z,96.06
2023-02-26T07:36:38.396Z,96.25
2023-02-26T07:37:38.381Z,96.25
2023-02-26T07:38:38.308Z,96.06
2023-02-26T07:39:38.266Z,96.16
2023-02-26T07:40:38.236Z,96.16
2023-02-26T07:41:38.191Z,96.16
2023-02-26T07:42:38.160Z,95.78
2023-02-26T07:43:38.119Z,95.68
2023-02-26T07:44:38.085Z,96.44
2023-02-26T07:45:38.040Z,96.44
2023-02-26T07:46:38.222Z,96.44
2023-02-26T07:47:37.989Z,96.06
2023-02-26T07:48:38.050Z,96.06
2023-02-26T07:49:37.886Z,96.25
2023-02-26T07:50:37.856Z,96.54
2023-02-26T07:51:37.812Z,96.44
2023-02-26T07:52:37.768Z,96.35
2023-02-26T07:53:37.749Z,96.73
2023-02-26T07:54:37.741Z,96.25
2023-02-26T07:55:37.646Z,96.44
2023-02-26T07:56:37.618Z,95.87
2023-02-26T07:57:37.577Z,96.25
2023-02-26T07:58:37.537Z,96.06
2023-02-26T07:59:37.499Z,95.87
2023-02-26T08:00:37.463Z,95.87
2023-02-26T08:01:37.547Z,95.87
2023-02-26T08:02:37.411Z,96.06
2023-02-26T08:03:37.346Z,95.59
2023-02-26T08:04:37.580Z,95.64
2023-02-26T08:05:37.284Z,95.73
2023-02-26T08:06:37.260Z,95.73
2023-02-26T08:07:37.185Z,96.02
2023-02-26T08:08:37.181Z,95.73
2023-02-26T08:09:37.149Z,95.17
2023-02-26T08:10:37.074Z,95.36
2023-02-26T08:11:37.037Z,95.64
2023-02-26T08:12:37.172Z,95.45
2023-02-26T08:13:36.966Z,95.36
2023-02-26T08:14:36.935Z,95.64
2023-02-26T08:15:37.033Z,95.54
2023-02-26T08:16:36.858Z,95.54
2023-02-26T08:17:36.818Z,95.36
2023-02-26T08:18:36.768Z,95.17
2023-02-26T08:19:36.753Z,94.98
2023-02-26T08:20:36.729Z,95.07
2023-02-26T08:21:36.727Z,94.79
2023-02-26T08:22:36.619Z,94.6
2023-02-26T08:23:36.584Z,94.51
2023-02-26T08:24:36.549Z,94.22
2023-02-26T08:25:36.564Z,94.03
2023-02-26T08:26:36.221Z,94.22
2023-02-26T08:27:36.470Z,94.13
2023-02-26T08:28:36.390Z,94.22
2023-02-26T08:29:36.354Z,93.47
2023-02-26T08:30:36.358Z,93.28
2023-02-26T08:31:36.494Z,93.37
2023-02-26T08:32:36.388Z,93.47
2023-02-26T08:33:36.208Z,92.8
2023-02-26T08:34:36.175Z,92.8
2023-02-26T08:35:36.128Z,92.24
2023-02-26T08:36:36.117Z,92.05
2023-02-26T08:37:36.050Z,91.67
2023-02-26T08:38:36.011Z,91.2
2023-02-26T08:39:36.038Z,91.39
2023-02-26T08:40:36.030Z,91.01
2023-02-26T08:41:35.922Z,90.54
2023-02-26T08:42:35.865Z,90.49
2023-02-26T08:43:35.837Z,89.87
2023-02-26T08:44:35.787Z,90.01
2023-02-26T08:45:35.747Z,88.98
2023-02-26T08:46:35.819Z,88.88
2023-02-26T08:47:48.797Z,88.98
2023-02-26T08:48:35.660Z,88.6
2023-02-26T08:49:35.605Z,88.22
2023-02-26T08:50:35.557Z,88.03
2023-02-26T08:51:35.525Z,88.12
2023-02-26T08:52:35.513Z,87.65
2023-02-26T08:53:35.456Z,87.46
2023-02-26T08:54:35.410Z,87.93
2023-02-26T08:55:35.377Z,87.65
2023-02-26T08:56:35.333Z,87.84
2023-02-26T08:57:35.331Z,87.18
2023-02-26T08:58:35.267Z,86.52
2023-02-26T08:59:35.231Z,85.95
2023-02-26T09:00:35.185Z,85.38
2023-02-26T09:01:35.310Z,85.19
2023-02-26T09:02:35.148Z,84.91
2023-02-26T09:03:35.079Z,84.91
2023-02-26T09:04:35.049Z,85.38
2023-02-26T09:05:35.003Z,84.81
2023-02-26T09:06:34.975Z,85
2023-02-26T09:07:34.933Z,85.19
2023-02-26T09:08:34.915Z,84.34
2023-02-26T09:09:34.865Z,84.44
2023-02-26T09:10:34.824Z,84.16
2023-02-26T09:11:34.836Z,84.16
2023-02-26T09:12:34.742Z,83.87
2023-02-26T09:13:34.734Z,83.3
2023-02-26T09:14:34.676Z,82.83
2023-02-26T09:15:34.638Z,83.02
2023-02-26T09:16:34.760Z,82.83
2023-02-26T09:17:34.316Z,82.35
2023-02-26T09:18:34.534Z,82.35
2023-02-26T09:19:34.605Z,82.68
2023-02-26T09:20:34.453Z,82.4
2023-02-26T09:21:34.420Z,81.88
2023-02-26T09:22:34.401Z,82.4
2023-02-26T09:23:34.347Z,81.83
2023-02-26T09:24:34.361Z,82.12
2023-02-26T09:25:34.263Z,81.83
2023-02-26T09:26:34.227Z,82.02
2023-02-26T09:27:34.190Z,81.93
2023-02-26T09:28:34.374Z,82.02
2023-02-26T09:29:34.139Z,82.12
2023-02-26T09:30:34.077Z,82.02
2023-02-26T09:31:34.482Z,82.02
2023-02-26T09:32:34.280Z,82.02
2023-02-26T09:33:33.965Z,81.45
2023-02-26T09:34:33.930Z,81.55
2023-02-26T09:35:33.892Z,81.55
2023-02-26T09:36:33.866Z,81.55
2023-02-26T09:37:33.810Z,80.88
2023-02-26T09:38:33.780Z,80.88
2023-02-26T09:39:33.746Z,80.79
2023-02-26T09:40:33.737Z,80.04
2023-02-26T09:41:33.671Z,79.47
2023-02-26T09:42:33.641Z,79.28
2023-02-26T09:43:33.609Z,79.18
2023-02-26T09:44:33.559Z,78.52
2023-02-26T09:45:33.615Z,78.71
2023-02-26T09:46:33.498Z,78.71
2023-02-26T09:47:33.456Z,78.99
2023-02-26T09:48:33.422Z,78.9
2023-02-26T09:49:33.394Z,78.61
2023-02-26T09:50:33.343Z,78.52
2023-02-26T09:51:33.305Z,78.23
2023-02-26T09:52:33.270Z,78.75
2023-02-26T09:53:33.238Z,78.18
2023-02-26T09:54:33.204Z,78.18
2023-02-26T09:55:33.161Z,77.48
2023-02-26T09:56:33.187Z,77.51
2023-02-26T09:57:33.092Z,77.33
2023-02-26T09:58:33.064Z,77.33
2023-02-26T09:59:33.039Z,76.67
2023-02-26T10:00:33.004Z,76.67
2023-02-26T10:01:33.186Z,76.82
2023-02-26T10:02:32.905Z,77.14
2023-02-26T10:03:32.877Z,76.19
2023-02-26T10:04:32.938Z,75.62
2023-02-26T10:05:32.819Z,75.81
2023-02-26T10:06:32.777Z,75.62
2023-02-26T10:07:32.737Z,75.87
2023-02-26T10:08:32.694Z,76.29
2023-02-26T10:09:32.705Z,76.38
2023-02-26T10:10:35.423Z,76.48
2023-02-26T10:11:32.588Z,76.67
2023-02-26T10:12:32.571Z,76.19
2023-02-26T10:13:32.840Z,76.1
2023-02-26T10:14:32.481Z,76.38
2023-02-26T10:15:32.446Z,75.91
2023-02-26T10:16:33.277Z,75.34
2023-02-26T10:17:32.410Z,74.3
2023-02-26T10:18:32.335Z,74.21
2023-02-26T10:19:32.330Z,74.02
2023-02-26T10:20:32.364Z,73.73
2023-02-26T10:21:32.066Z,73.83
2023-02-26T10:22:32.197Z,73.73
2023-02-26T10:23:32.170Z,73.45
2023-02-26T10:24:32.115Z,73.35
2023-02-26T10:25:32.091Z,73.35
2023-02-26T10:26:32.043Z,72.6
2023-02-26T10:27:31.784Z,72.88
2023-02-26T10:28:32.026Z,71.93
2023-02-26T10:29:31.973Z,71.74
2023-02-26T10:30:31.941Z,70.32
2023-02-26T10:31:32.347Z,69.85
2023-02-26T10:32:32.054Z,69.76
2023-02-26T10:33:31.815Z,69.57
2023-02-26T10:34:31.761Z,69.57
2023-02-26T10:35:31.720Z,69.57
2023-02-26T10:36:31.683Z,69.47
2023-02-26T10:37:31.654Z,69.95
2023-02-26T10:38:31.620Z,70.23
2023-02-26T10:39:31.575Z,70.04
2023-02-26T10:40:31.604Z,70.04
2023-02-26T10:41:31.576Z,69.7
2023-02-26T10:42:31.472Z,68.56
2023-02-26T10:43:31.434Z,69.13
2023-02-26T10:44:31.419Z,68.75
2023-02-26T10:45:31.366Z,68.56
2023-02-26T10:46:31.321Z,67.96
2023-02-26T10:47:31.290Z,67.39
2023-02-26T10:48:31.005Z,67.01
2023-02-26T10:49:31.262Z,67.49
2023-02-26T10:50:31.184Z,68.15
2023-02-26T10:51:31.406Z,68.43
2023-02-26T10:52:31.111Z,67.52
2023-02-26T10:53:31.073Z,67.49
2023-02-26T10:54:31.046Z,67.3
2023-02-26T10:55:31.006Z,67.33
2023-02-26T10:56:30.966Z,67.24
2023-02-26T10:57:30.939Z,67.14
2023-02-26T10:58:30.900Z,67.05
2023-02-26T10:59:30.885Z,66.38
2023-02-26T11:00:30.848Z,66.47
2023-02-26T11:01:31.478Z,66.09
2023-02-26T11:02:30.808Z,65.81
2023-02-26T11:03:30.716Z,66.25
2023-02-26T11:04:30.708Z,65.72
2023-02-26T11:05:30.958Z,65.53
2023-02-26T11:06:30.614Z,65.25
2023-02-26T11:07:32.301Z,66
2023-02-26T11:08:30.547Z,66.09
2023-02-26T11:09:30.514Z,65.25
2023-02-26T11:10:30.483Z,65.15
2023-02-26T11:11:30.612Z,64.87
2023-02-26T11:12:30.407Z,64.77
2023-02-26T11:13:30.365Z,64.11
2023-02-26T11:14:33.153Z,63.64
2023-02-26T11:15:30.471Z,63.07
2023-02-26T11:16:30.292Z,62.78
2023-02-26T11:17:30.303Z,63.16
2023-02-26T11:18:30.222Z,63.16
2023-02-26T11:19:30.163Z,63.16
2023-02-26T11:20:30.145Z,62.4
2023-02-26T11:21:30.620Z,62.88
2023-02-26T11:22:30.066Z,63.07
2023-02-26T11:23:30.033Z,62.4
2023-02-26T11:24:29.994Z,62.78
2023-02-26T11:25:29.961Z,62.59
2023-02-26T11:26:29.915Z,62.78
2023-02-26T11:27:29.642Z,63.35
2023-02-26T11:28:29.850Z,63.92
2023-02-26T11:29:29.810Z,63.54
2023-02-26T11:30:29.895Z,64.39
2023-02-26T11:31:30.970Z,64.33
2023-02-26T11:32:29.842Z,64.33
2023-02-26T11:33:29.672Z,63.76
2023-02-26T11:34:29.649Z,63.57
2023-02-26T11:35:29.603Z,63.2
2023-02-26T11:36:29.864Z,62.82
2023-02-26T11:37:29.559Z,62.62
2023-02-26T11:38:29.650Z,63.29
2023-02-26T11:39:29.459Z,62.82
2023-02-26T11:40:29.434Z,62.72
2023-02-26T11:41:30.194Z,63.29
2023-02-26T11:42:29.356Z,63.29
2023-02-26T11:43:29.322Z,63.54
2023-02-26T11:44:29.293Z,63.82
2023-02-26T11:45:29.261Z,64.3
2023-02-26T11:46:29.388Z,64.49
2023-02-26T11:47:29.199Z,64.49
2023-02-26T11:48:29.179Z,64.87
2023-02-26T11:49:29.119Z,64.39
2023-02-26T11:50:29.077Z,63.82
2023-02-26T11:51:29.608Z,63.82
2023-02-26T11:52:29.019Z,63.82
2023-02-26T11:53:29.013Z,64.11
2023-02-26T11:54:28.936Z,64.11
2023-02-26T11:55:28.719Z,62.72
2023-02-26T11:56:28.863Z,62.15
2023-02-26T11:57:28.837Z,60.7
2023-02-26T11:58:28.807Z,59.75
2023-02-26T11:59:28.772Z,60.13
2023-02-26T12:00:28.720Z,59.94
2023-02-26T12:01:29.333Z,60.83
2023-02-26T12:02:28.763Z,60.8
2023-02-26T12:03:28.756Z,60.83
2023-02-26T12:04:30.186Z,60.16
2023-02-26T12:05:28.566Z,59.97
2023-02-26T12:06:28.521Z,60.16
2023-02-26T12:07:28.499Z,59.5
2023-02-26T12:08:28.459Z,59.69
2023-02-26T12:09:28.444Z,60.25
2023-02-26T12:10:28.380Z,59.97
2023-02-26T12:11:29.083Z,60.54
2023-02-26T12:12:28.311Z,60.06
2023-02-26T12:13:28.269Z,60.16
2023-02-26T12:14:28.355Z,59.97
2023-02-26T12:15:28.202Z,59.78
2023-02-26T12:16:28.160Z,59.53
2023-02-26T12:17:28.147Z,59.44
2023-02-26T12:18:28.103Z,58.2
2023-02-26T12:19:28.065Z,55.93
2023-02-26T12:20:28.050Z,54.88
2023-02-26T12:21:28.924Z,54.22
2023-02-26T12:22:27.968Z,54.67
2023-02-26T12:23:27.931Z,55.43
2023-02-26T12:24:27.901Z,55.99
2023-02-26T12:25:27.886Z,55.8
2023-02-26T12:26:27.821Z,55.71
2023-02-26T12:27:27.800Z,54.57
2023-02-26T12:28:27.754Z,54.86
2023-02-26T12:29:27.718Z,54.76
2023-02-26T12:30:27.696Z,54.19
2023-02-26T12:31:28.980Z,54.86
2023-02-26T12:32:27.884Z,54.67
2023-02-26T12:33:27.583Z,54.19
2023-02-26T12:34:27.549Z,54.1
2023-02-26T12:35:27.507Z,53.44
2023-02-26T12:36:31.616Z,52.87
2023-02-26T12:37:27.450Z,53.25
2023-02-26T12:38:27.420Z,53.34
2023-02-26T12:39:27.370Z,52.58
2023-02-26T12:40:27.356Z,52.39
2023-02-26T12:41:28.227Z,52.29
2023-02-26T12:42:27.272Z,52.68
2023-02-26T12:43:27.238Z,52.48
2023-02-26T12:44:27.207Z,52.58
2023-02-26T12:45:27.173Z,52.68
2023-02-26T12:46:27.241Z,53.63
2023-02-26T12:47:27.114Z,53.25
2023-02-26T12:48:27.072Z,53.81
2023-02-26T12:49:27.055Z,53.91
2023-02-26T12:50:27.122Z,54.28
2023-02-26T12:51:27.891Z,54
2023-02-26T12:52:26.956Z,54.86
2023-02-26T12:53:26.891Z,54.86
2023-02-26T12:54:26.612Z,54.19
2023-02-26T12:55:26.824Z,54.98